Time;durP1;ratioP1;P1;durP2;ratioP2;P2;SDS_P1;SDS_P2;PMS_P1;PMS_P2;Temp;Humidity;BMP_temperature;BMP_pressure;BME280_temperature;BME280_humidity;BME280_pressure;Samples;Min_cycle;Max_cycle;Signal;HPM_P1;HPM_P2
2021/11/14 00:00:16;;;;;;;14.10;7.82;;;11.80;95.90;;;;;;5080868;28;20024;-79
2021/11/14 00:02:42;;;;;;;13.35;7.63;;;11.80;96.00;;;;;;5080915;28;20034;-79
2021/11/14 00:05:08;;;;;;;13.18;7.82;;;11.80;95.90;;;;;;5080880;28;20413;-79
2021/11/14 00:07:34;;;;;;;13.07;7.65;;;11.80;95.80;;;;;;5080706;28;20116;-79
2021/11/14 00:10:00;;;;;;;16.50;8.43;;;11.70;95.40;;;;;;5080441;28;20023;-79
2021/11/14 00:12:26;;;;;;;18.83;8.75;;;11.80;95.40;;;;;;5080737;28;20017;-79
2021/11/14 00:14:52;;;;;;;16.35;8.13;;;11.80;95.60;;;;;;5080473;28;20025;-79
2021/11/14 00:17:18;;;;;;;12.25;7.28;;;11.80;95.40;;;;;;5080999;28;20095;-78
2021/11/14 00:19:43;;;;;;;13.00;7.28;;;11.80;95.60;;;;;;5080401;28;20025;-79
2021/11/14 00:22:09;;;;;;;12.27;7.10;;;11.80;95.70;;;;;;5080356;28;20394;-79
2021/11/14 00:24:35;;;;;;;14.30;7.18;;;11.80;95.60;;;;;;5080240;28;20027;-79
2021/11/14 00:27:01;;;;;;;13.68;7.40;;;11.70;95.40;;;;;;5080778;28;20025;-79
2021/11/14 00:29:27;;;;;;;14.30;8.00;;;11.70;95.40;;;;;;5078824;28;20086;-79
2021/11/14 00:31:53;;;;;;;14.27;8.55;;;11.70;95.70;;;;;;5080353;28;20024;-79
2021/11/14 00:34:19;;;;;;;13.65;8.13;;;11.80;95.90;;;;;;5080138;28;20024;-79
2021/11/14 00:36:45;;;;;;;16.80;8.15;;;11.80;96.10;;;;;;5080179;28;20504;-78
2021/11/14 00:39:16;;;;;;;13.80;7.53;;;11.80;96.10;;;;;;5078422;28;20032;-79
2021/11/14 00:41:44;;;;;;;13.95;7.97;;;11.70;96.00;;;;;;5080407;28;20035;-79
2021/11/14 00:44:10;;;;;;;14.48;7.88;;;11.70;96.00;;;;;;5079877;28;20032;-79
2021/11/14 00:46:36;;;;;;;16.67;8.45;;;11.70;95.80;;;;;;5080121;28;20031;-79
2021/11/14 00:49:03;;;;;;;13.48;7.78;;;11.70;95.90;;;;;;5079533;28;20020;-79
2021/11/14 00:51:29;;;;;;;13.25;7.13;;;11.70;96.10;;;;;;5075145;28;20115;-79
2021/11/14 00:53:59;;;;;;;14.65;7.65;;;11.70;96.20;;;;;;5076471;28;20028;-79
2021/11/14 00:56:26;;;;;;;14.00;8.50;;;11.70;96.20;;;;;;5080116;28;20025;-79
2021/11/14 00:58:53;;;;;;;17.38;7.70;;;11.70;96.20;;;;;;5079749;28;20616;-79
2021/11/14 01:01:19;;;;;;;11.52;7.10;;;11.70;96.20;;;;;;5079723;28;20056;-79
2021/11/14 01:03:45;;;;;;;14.18;7.90;;;11.70;96.20;;;;;;5079705;28;20027;-79
2021/11/14 01:06:11;;;;;;;16.17;8.95;;;11.70;96.20;;;;;;5078406;28;20478;-79
2021/11/14 01:08:37;;;;;;;13.70;7.68;;;11.70;96.20;;;;;;5079045;28;20017;-79
2021/11/14 01:11:05;;;;;;;15.00;7.40;;;11.70;96.20;;;;;;5079609;28;20029;-79
2021/11/14 01:13:32;;;;;;;13.05;7.75;;;11.70;96.20;;;;;;5078144;28;20483;-79
2021/11/14 01:15:59;;;;;;;11.93;7.43;;;11.70;95.90;;;;;;5079514;28;20043;-79
2021/11/14 01:18:25;;;;;;;15.48;7.50;;;11.70;96.00;;;;;;5079375;28;20070;-79
2021/11/14 01:20:55;;;;;;;13.52;7.22;;;11.70;96.20;;;;;;5078110;28;20032;-79
2021/11/14 01:23:21;;;;;;;14.13;7.63;;;11.70;96.10;;;;;;5078945;28;20475;-79
2021/11/14 01:25:49;;;;;;;13.77;8.32;;;11.70;95.90;;;;;;5079310;28;20031;-79
2021/11/14 01:28:17;;;;;;;12.82;6.65;;;11.70;95.90;;;;;;5079177;28;20089;-79
2021/11/14 01:30:47;;;;;;;13.63;7.57;;;11.70;96.00;;;;;;5077932;28;20033;-79
2021/11/14 01:33:14;;;;;;;15.45;7.57;;;11.70;96.00;;;;;;5079076;28;20061;-79
2021/11/14 01:35:40;;;;;;;12.00;6.82;;;11.70;96.00;;;;;;5079101;28;20052;-79
2021/11/14 01:38:07;;;;;;;11.63;6.75;;;11.70;95.90;;;;;;5078661;28;20044;-79
2021/11/14 01:40:41;;;;;;;13.30;7.57;;;11.70;95.90;;;;;;5077579;28;20033;-79
2021/11/14 01:43:11;;;;;;;14.77;7.95;;;11.70;96.10;;;;;;5078000;28;20100;-79
2021/11/14 01:45:38;;;;;;;13.35;7.13;;;11.70;96.30;;;;;;5078921;28;20025;-79
2021/11/14 01:48:05;;;;;;;13.48;7.30;;;11.70;96.10;;;;;;5078859;28;20020;-79
2021/11/14 01:50:32;;;;;;;11.82;6.80;;;11.70;96.10;;;;;;5076367;28;20036;-79
2021/11/14 01:52:58;;;;;;;14.05;8.48;;;11.70;96.10;;;;;;5078544;28;20024;-79
2021/11/14 01:55:28;;;;;;;17.83;9.20;;;11.70;96.20;;;;;;5077217;28;20031;-79
2021/11/14 01:57:56;;;;;;;15.18;8.75;;;11.70;96.40;;;;;;5078653;28;20024;-79
2021/11/14 02:00:30;;;;;;;13.57;7.28;;;11.70;96.50;;;;;;5076591;28;20120;-78
2021/11/14 02:02:56;;;;;;;16.83;8.25;;;11.70;96.50;;;;;;5060882;28;20090;-78
2021/11/14 02:05:24;;;;;;;14.43;7.35;;;11.70;96.50;;;;;;5078427;28;20084;-79
2021/11/14 02:07:52;;;;;;;15.30;7.15;;;11.70;96.50;;;;;;5078121;28;20075;-79
2021/11/14 02:10:19;;;;;;;15.60;7.65;;;11.60;96.50;;;;;;5078223;28;20558;-78
2021/11/14 02:12:45;;;;;;;14.23;7.18;;;11.60;96.60;;;;;;5078444;28;20016;-79
2021/11/14 02:15:11;;;;;;;13.93;8.07;;;11.70;96.60;;;;;;5078211;28;20087;-79
2021/11/14 02:17:37;;;;;;;12.88;7.97;;;11.60;96.40;;;;;;5078303;28;20020;-78
2021/11/14 02:20:05;;;;;;;12.27;6.90;;;11.60;96.40;;;;;;5078121;28;20487;-78
2021/11/14 02:22:30;;;;;;;12.10;6.47;;;11.60;96.10;;;;;;5077869;28;20442;-79
2021/11/14 02:24:57;;;;;;;11.35;7.15;;;11.60;95.90;;;;;;5077915;28;20078;-77
2021/11/14 02:27:22;;;;;;;15.93;7.25;;;11.60;95.80;;;;;;5078119;28;20024;-77
2021/11/14 02:29:48;;;;;;;15.50;7.35;;;11.60;95.90;;;;;;5077887;28;20028;-77
2021/11/14 02:32:14;;;;;;;14.60;6.65;;;11.60;95.80;;;;;;5078038;28;20017;-77
2021/11/14 02:34:40;;;;;;;12.48;6.70;;;11.60;95.70;;;;;;5077842;28;20055;-77
2021/11/14 02:37:07;;;;;;;11.80;6.55;;;11.60;95.70;;;;;;5077611;28;20036;-77
2021/11/14 02:39:33;;;;;;;15.27;7.38;;;11.60;95.60;;;;;;5077659;28;20035;-77
2021/11/14 02:41:59;;;;;;;11.93;6.45;;;11.60;95.60;;;;;;5077861;28;20036;-77
2021/11/14 02:44:25;;;;;;;11.93;6.38;;;11.50;95.50;;;;;;5077689;28;20025;-76
2021/11/14 02:46:51;;;;;;;11.55;6.25;;;11.50;95.30;;;;;;5077904;28;20025;-77
2021/11/14 02:49:17;;;;;;;9.82;6.18;;;11.50;95.20;;;;;;5077538;28;20031;-77
2021/11/14 02:51:44;;;;;;;13.43;6.57;;;11.50;95.60;;;;;;5076475;28;20024;-77
2021/11/14 02:54:10;;;;;;;13.00;7.57;;;11.50;95.40;;;;;;5077262;28;20028;-77
2021/11/14 02:56:37;;;;;;;12.27;6.68;;;11.50;95.30;;;;;;5077702;28;20025;-77
2021/11/14 02:59:03;;;;;;;11.10;6.10;;;11.60;95.20;;;;;;5077482;28;20075;-76
2021/11/14 03:01:34;;;;;;;12.10;6.82;;;11.50;95.00;;;;;;5076342;28;20503;-77
2021/11/14 03:04:00;;;;;;;13.65;7.47;;;11.60;95.00;;;;;;5077490;28;20104;-77
2021/11/14 03:06:29;;;;;;;12.90;6.72;;;11.60;95.00;;;;;;5077543;28;20033;-77
2021/11/14 03:08:55;;;;;;;13.20;7.32;;;11.50;95.00;;;;;;5077180;28;20024;-77
2021/11/14 03:11:21;;;;;;;15.15;7.03;;;11.60;95.10;;;;;;5077426;28;20025;-77
2021/11/14 03:13:47;;;;;;;12.95;6.88;;;11.50;95.00;;;;;;5077452;28;20082;-77
2021/11/14 03:16:20;;;;;;;12.32;6.75;;;11.50;95.10;;;;;;5077442;28;20024;-77
2021/11/14 03:18:46;;;;;;;13.25;7.28;;;11.50;95.30;;;;;;5077713;28;20103;-77
2021/11/14 03:21:12;;;;;;;14.63;7.85;;;11.50;95.30;;;;;;5077571;28;20112;-77
2021/11/14 03:23:38;;;;;;;13.40;6.60;;;11.60;95.50;;;;;;5077153;28;20063;-77
2021/11/14 03:26:04;;;;;;;11.05;6.53;;;11.50;95.40;;;;;;5077369;28;20027;-77
2021/11/14 03:28:32;;;;;;;10.32;6.47;;;11.50;95.40;;;;;;5077463;28;20383;-77
2021/11/14 03:30:59;;;;;;;13.80;6.85;;;11.50;95.40;;;;;;5077216;28;20032;-77
2021/11/14 03:33:26;;;;;;;14.63;8.20;;;11.50;95.30;;;;;;5077154;28;20021;-77
2021/11/14 03:35:55;;;;;;;14.13;7.28;;;11.50;95.50;;;;;;5076983;28;20032;-76
2021/11/14 03:38:38;;;;;;;12.07;6.78;;;11.50;95.40;;;;;;5077099;28;20111;-77
2021/11/14 03:41:06;;;;;;;12.63;7.28;;;11.50;95.40;;;;;;5077002;28;20035;-77
2021/11/14 03:43:33;;;;;;;13.98;7.43;;;11.50;95.50;;;;;;5077107;28;20423;-77
2021/11/14 03:45:59;;;;;;;12.82;7.60;;;11.50;95.70;;;;;;5077124;28;20029;-77
2021/11/14 03:48:26;;;;;;;14.35;7.60;;;11.50;95.60;;;;;;5077076;28;20091;-76
2021/11/14 03:50:52;;;;;;;11.70;6.68;;;11.50;95.40;;;;;;5076827;28;20029;-77
2021/11/14 03:53:20;;;;;;;12.50;7.43;;;11.50;95.50;;;;;;5076985;28;20096;-77
2021/11/14 03:55:46;;;;;;;14.05;7.88;;;11.50;95.20;;;;;;5075552;28;20025;-77
2021/11/14 03:58:12;;;;;;;13.10;7.97;;;11.50;95.40;;;;;;5077059;28;20142;-76
2021/11/14 04:00:46;;;;;;;12.48;7.22;;;11.50;95.40;;;;;;5076860;28;20025;-77
2021/11/14 04:03:12;;;;;;;14.70;7.90;;;11.50;95.40;;;;;;5077119;28;20100;-77
2021/11/14 04:05:41;;;;;;;14.00;7.55;;;11.50;95.40;;;;;;5076940;28;20089;-77
2021/11/14 04:08:10;;;;;;;14.00;7.28;;;11.50;95.60;;;;;;5076660;28;20021;-77
2021/11/14 04:10:37;;;;;;;14.48;7.93;;;11.50;95.50;;;;;;5076815;28;20044;-77
2021/11/14 04:13:03;;;;;;;12.63;7.32;;;11.50;95.30;;;;;;5076821;28;20016;-76
2021/11/14 04:15:29;;;;;;;12.85;6.93;;;11.40;95.20;;;;;;5076884;28;20394;-76
2021/11/14 04:17:58;;;;;;;13.20;8.10;;;11.40;95.30;;;;;;5077202;28;20021;-77
2021/11/14 04:20:26;;;;;;;12.75;6.45;;;11.40;95.20;;;;;;5076878;28;20025;-77
2021/11/14 04:22:53;;;;;;;18.95;7.60;;;11.40;95.00;;;;;;5076668;28;20013;-77
2021/11/14 04:25:19;;;;;;;11.68;7.28;;;11.40;94.80;;;;;;5079136;28;20032;-77
2021/11/14 04:27:45;;;;;;;15.27;7.63;;;11.40;94.80;;;;;;5080391;28;20104;-77
2021/11/14 04:30:11;;;;;;;13.02;7.90;;;11.40;94.90;;;;;;5079047;28;20054;-77
2021/11/14 04:32:37;;;;;;;13.73;7.18;;;11.50;95.20;;;;;;5080118;28;20446;-77
2021/11/14 04:35:04;;;;;;;12.23;7.05;;;11.40;95.20;;;;;;5080457;28;20023;-77
2021/11/14 04:37:30;;;;;;;15.52;7.85;;;11.40;95.20;;;;;;5079838;28;20062;-77
2021/11/14 04:39:56;;;;;;;15.55;8.32;;;11.40;95.30;;;;;;5080336;28;20107;-77
2021/11/14 04:42:21;;;;;;;11.48;6.97;;;11.50;95.30;;;;;;5080000;28;20025;-77
2021/11/14 04:44:47;;;;;;;14.82;7.65;;;11.40;95.30;;;;;;5078849;28;20039;-77
2021/11/14 04:47:16;;;;;;;16.77;8.20;;;11.40;95.40;;;;;;5080118;28;20057;-76
2021/11/14 04:49:41;;;;;;;16.30;7.75;;;11.40;95.50;;;;;;5080155;28;20035;-77
2021/11/14 04:52:09;;;;;;;15.30;8.32;;;11.40;95.50;;;;;;5079480;28;20028;-76
2021/11/14 04:54:34;;;;;;;13.85;7.45;;;11.40;95.50;;;;;;5079859;28;20064;-77
2021/11/14 04:57:00;;;;;;;14.45;7.72;;;11.40;95.40;;;;;;5079728;28;20432;-77
2021/11/14 04:59:26;;;;;;;14.55;7.55;;;11.40;95.20;;;;;;5080107;28;20052;-79
2021/11/14 05:01:52;;;;;;;12.93;6.80;;;11.40;95.10;;;;;;5079697;28;20134;-78
2021/11/14 05:04:18;;;;;;;13.70;7.32;;;11.40;95.10;;;;;;5079866;28;20024;-79
2021/11/14 05:06:44;;;;;;;14.55;7.53;;;11.40;95.10;;;;;;5079490;28;20028;-79
2021/11/14 05:09:10;;;;;;;15.65;8.25;;;11.30;95.10;;;;;;5079509;28;20084;-79
2021/11/14 05:11:37;;;;;;;13.77;7.07;;;11.40;95.30;;;;;;5078167;28;20466;-79
2021/11/14 05:14:03;;;;;;;15.15;7.68;;;11.30;95.20;;;;;;5078296;28;20028;-79
2021/11/14 05:16:29;;;;;;;13.77;6.88;;;11.30;95.10;;;;;;5079432;28;20402;-79
2021/11/14 05:18:56;;;;;;;11.48;6.55;;;11.30;95.20;;;;;;5078162;28;20016;-79
2021/11/14 05:21:22;;;;;;;12.88;7.47;;;11.30;95.00;;;;;;5079284;28;20513;-78
2021/11/14 05:23:48;;;;;;;13.02;7.35;;;11.30;94.90;;;;;;5079105;28;20024;-79
2021/11/14 05:26:14;;;;;;;11.75;6.65;;;11.30;94.80;;;;;;5079226;28;20158;-79
2021/11/14 05:28:40;;;;;;;17.55;6.95;;;11.30;94.60;;;;;;5079436;28;20027;-79
2021/11/14 05:31:06;;;;;;;13.05;7.25;;;11.30;94.80;;;;;;5079120;28;20031;-79
2021/11/14 05:33:32;;;;;;;15.18;7.20;;;11.30;94.70;;;;;;5079241;28;20103;-79
2021/11/14 05:35:58;;;;;;;12.07;7.05;;;11.30;94.70;;;;;;5077851;28;20052;-78
2021/11/14 05:38:24;;;;;;;12.43;6.82;;;11.30;94.70;;;;;;5078849;28;20028;-79
2021/11/14 05:40:50;;;;;;;13.77;7.30;;;11.20;94.70;;;;;;5078848;28;20028;-79
2021/11/14 05:43:16;;;;;;;12.70;6.75;;;11.30;94.50;;;;;;5077718;28;20064;-79
2021/11/14 05:45:43;;;;;;;10.48;6.60;;;11.20;94.40;;;;;;5078836;28;20024;-79
2021/11/14 05:48:09;;;;;;;15.38;7.32;;;11.20;94.60;;;;;;5078867;28;20050;-79
2021/11/14 05:50:37;;;;;;;18.40;8.30;;;11.20;94.70;;;;;;5078839;28;20099;-79
2021/11/14 05:53:04;;;;;;;14.90;7.90;;;11.20;95.20;;;;;;5078735;28;20479;-79
2021/11/14 05:55:30;;;;;;;14.93;7.55;;;11.20;95.00;;;;;;5078693;28;20077;-79
2021/11/14 05:57:59;;;;;;;21.35;8.73;;;11.20;95.10;;;;;;5078710;28;20024;-79
2021/11/14 06:00:32;;;;;;;13.90;7.68;;;11.20;95.20;;;;;;5078593;28;20020;-79
2021/11/14 06:03:19;;;;;;;17.25;8.13;;;11.20;95.60;;;;;;5078684;28;20024;-78
2021/11/14 06:05:45;;;;;;;14.45;7.82;;;11.20;95.60;;;;;;5078426;28;20031;-78
2021/11/14 06:08:11;;;;;;;15.13;7.25;;;11.10;95.60;;;;;;5078093;28;20031;-78
2021/11/14 06:10:37;;;;;;;15.57;8.23;;;11.20;95.70;;;;;;5078365;28;20020;-78
2021/11/14 06:13:05;;;;;;;15.25;6.82;;;11.20;95.60;;;;;;5076988;28;20436;-79
2021/11/14 06:15:31;;;;;;;16.35;7.82;;;11.10;95.50;;;;;;5078561;28;20028;-79
2021/11/14 06:17:57;;;;;;;15.48;8.23;;;11.20;95.70;;;;;;5078357;28;20082;-79
2021/11/14 06:20:23;;;;;;;15.40;8.85;;;11.20;95.80;;;;;;5078446;28;20036;-78
2021/11/14 06:22:49;;;;;;;15.77;8.57;;;11.20;95.90;;;;;;5077851;28;20169;-79
2021/11/14 06:25:17;;;;;;;18.00;9.02;;;11.20;95.90;;;;;;5078292;28;20031;-79
2021/11/14 06:27:43;;;;;;;15.27;7.85;;;11.10;95.90;;;;;;5078060;28;20498;-78
2021/11/14 06:30:12;;;;;;;18.38;8.50;;;11.20;95.80;;;;;;5078223;28;20079;-78
2021/11/14 06:32:39;;;;;;;15.35;8.40;;;11.10;95.70;;;;;;5077797;28;20012;-79
2021/11/14 06:35:05;;;;;;;18.85;8.65;;;11.20;95.70;;;;;;5076715;28;20025;-79
2021/11/14 06:37:31;;;;;;;15.82;8.00;;;11.10;95.80;;;;;;5077500;28;20036;-79
2021/11/14 06:39:57;;;;;;;17.23;8.70;;;11.20;95.90;;;;;;5077919;28;20078;-78
2021/11/14 06:42:23;;;;;;;13.45;7.43;;;11.20;95.90;;;;;;5077808;28;20048;-78
2021/11/14 06:44:49;;;;;;;13.00;7.90;;;11.10;95.80;;;;;;5078020;28;20024;-79
2021/11/14 06:47:15;;;;;;;13.93;7.60;;;11.20;95.80;;;;;;5077436;28;20024;-79
2021/11/14 06:49:41;;;;;;;15.50;7.88;;;11.10;95.70;;;;;;5077963;28;20483;-79
2021/11/14 06:52:08;;;;;;;14.55;7.47;;;11.10;95.50;;;;;;5077331;28;20942;-79
2021/11/14 06:54:34;;;;;;;13.40;7.80;;;11.00;95.30;;;;;;5077961;28;20020;-79
2021/11/14 06:57:00;;;;;;;12.60;7.30;;;11.00;95.20;;;;;;5077597;28;20029;-78
2021/11/14 06:59:26;;;;;;;11.30;6.88;;;11.00;95.10;;;;;;5078032;28;20491;-79
2021/11/14 07:01:52;;;;;;;14.23;7.53;;;11.00;94.90;;;;;;5076211;28;20021;-79
2021/11/14 07:04:18;;;;;;;15.60;7.63;;;11.00;94.90;;;;;;5077671;28;20074;-78
2021/11/14 07:06:45;;;;;;;12.52;7.47;;;11.00;95.00;;;;;;5077301;28;20459;-78
2021/11/14 07:09:11;;;;;;;13.10;6.47;;;10.90;94.90;;;;;;5077538;28;20088;-78
2021/11/14 07:11:39;;;;;;;13.70;7.45;;;11.00;94.80;;;;;;5077409;28;20853;-79
2021/11/14 07:14:05;;;;;;;13.18;7.15;;;10.90;94.70;;;;;;5077458;28;20083;-79
2021/11/14 07:16:31;;;;;;;14.20;7.60;;;10.90;94.60;;;;;;5077416;28;21446;-79
2021/11/14 07:18:57;;;;;;;19.20;9.15;;;10.90;94.80;;;;;;5076152;28;20036;-79
2021/11/14 07:21:24;;;;;;;15.45;8.20;;;11.00;95.10;;;;;;5077302;28;20024;-79
2021/11/14 07:23:50;;;;;;;16.17;8.65;;;11.00;95.30;;;;;;5077032;28;20032;-79
2021/11/14 07:26:16;;;;;;;18.50;9.60;;;11.00;95.10;;;;;;5077264;28;20024;-79
2021/11/14 07:28:43;;;;;;;19.55;9.75;;;11.00;95.00;;;;;;5077342;28;20091;-79
2021/11/14 07:31:09;;;;;;;14.70;8.63;;;10.90;94.90;;;;;;5077237;28;20048;-79
2021/11/14 07:33:35;;;;;;;14.57;8.50;;;11.00;94.80;;;;;;5077292;28;20024;-79
2021/11/14 07:36:01;;;;;;;17.13;9.10;;;11.00;94.70;;;;;;5076953;28;20017;-79
2021/11/14 07:38:27;;;;;;;16.30;9.10;;;11.00;94.70;;;;;;5077011;28;20028;-79
2021/11/14 07:40:53;;;;;;;20.42;12.77;;;11.00;94.60;;;;;;5075683;28;20029;-79
2021/11/14 07:43:19;;;;;;;17.50;11.32;;;11.00;94.50;;;;;;5075800;28;20029;-79
2021/11/14 07:45:45;;;;;;;20.08;12.38;;;11.00;94.40;;;;;;5077053;28;20031;-79
2021/11/14 07:48:11;;;;;;;23.33;12.68;;;11.00;94.30;;;;;;5077121;28;20035;-79
2021/11/14 07:50:38;;;;;;;20.48;12.30;;;11.00;94.30;;;;;;5075634;28;20023;-79
2021/11/14 07:53:04;;;;;;;18.60;10.95;;;11.00;94.30;;;;;;5076851;28;20361;-79
2021/11/14 07:55:31;;;;;;;20.25;12.50;;;11.00;94.20;;;;;;5077300;28;20027;-79
2021/11/14 07:57:59;;;;;;;18.92;11.30;;;11.00;94.20;;;;;;5077373;28;20099;-79
2021/11/14 08:00:25;;;;;;;16.40;9.90;;;11.10;94.20;;;;;;5080882;28;20104;-79
2021/11/14 08:02:52;;;;;;;18.25;9.60;;;11.10;94.30;;;;;;5080985;28;20025;-79
2021/11/14 08:05:18;;;;;;;16.58;9.73;;;11.10;94.30;;;;;;5080900;28;20021;-79
2021/11/14 08:07:45;;;;;;;18.13;9.05;;;11.20;94.30;;;;;;5080538;28;20021;-79
2021/11/14 08:10:13;;;;;;;15.85;9.23;;;11.20;94.30;;;;;;5080488;28;20078;-78
2021/11/14 08:12:39;;;;;;;17.23;8.52;;;11.20;94.30;;;;;;5080684;28;20028;-79
2021/11/14 08:15:07;;;;;;;19.15;9.00;;;11.20;94.40;;;;;;5080567;28;20025;-78
2021/11/14 08:17:33;;;;;;;13.57;8.45;;;11.20;94.40;;;;;;5080591;28;20021;-79
2021/11/14 08:20:00;;;;;;;17.33;9.27;;;11.30;94.50;;;;;;5080537;28;20024;-79
2021/11/14 08:22:28;;;;;;;17.00;8.65;;;11.20;94.40;;;;;;5080230;28;20036;-79
2021/11/14 08:24:55;;;;;;;16.73;10.10;;;11.30;94.50;;;;;;5080174;28;20031;-79
2021/11/14 08:27:22;;;;;;;16.40;9.40;;;11.40;94.70;;;;;;5080457;28;20017;-79
2021/11/14 08:29:50;;;;;;;15.75;9.00;;;11.40;94.80;;;;;;5080332;28;20020;-79
2021/11/14 08:32:19;;;;;;;28.90;14.35;;;11.40;94.80;;;;;;5080231;28;20383;-79
2021/11/14 08:34:45;;;;;;;40.58;17.38;;;11.40;94.80;;;;;;5080382;28;20021;-79
2021/11/14 08:37:12;;;;;;;48.53;21.75;;;11.50;94.70;;;;;;5080036;28;20084;-79
2021/11/14 08:39:39;;;;;;;53.10;24.10;;;11.60;94.70;;;;;;5080009;28;20024;-79
2021/11/14 08:42:06;;;;;;;54.47;23.35;;;11.60;94.60;;;;;;5080208;28;20024;-79
2021/11/14 08:44:32;;;;;;;57.67;24.15;;;11.60;94.50;;;;;;5080193;28;20035;-79
2021/11/14 08:46:58;;;;;;;58.25;23.95;;;11.70;94.40;;;;;;5078798;28;20051;-79
2021/11/14 08:49:24;;;;;;;44.63;21.02;;;11.70;94.40;;;;;;5079830;28;20024;-78
2021/11/14 08:51:50;;;;;;;54.53;23.17;;;11.70;94.30;;;;;;5079633;28;20059;-79
2021/11/14 08:54:17;;;;;;;69.40;26.88;;;11.70;94.30;;;;;;5079789;28;20076;-79
2021/11/14 08:56:43;;;;;;;67.93;29.45;;;11.70;94.30;;;;;;5078588;28;20016;-79
2021/11/14 08:59:09;;;;;;;71.78;28.38;;;11.80;94.30;;;;;;5079871;28;20494;-79
2021/11/14 09:01:38;;;;;;;94.85;33.85;;;11.80;94.30;;;;;;5078515;28;20082;-79
2021/11/14 09:04:07;;;;;;;70.30;25.60;;;11.80;94.40;;;;;;5079744;28;20028;-78
2021/11/14 09:06:33;;;;;;;63.65;24.30;;;11.80;94.30;;;;;;5079764;28;20040;-79
2021/11/14 09:08:59;;;;;;;47.85;19.52;;;11.80;94.30;;;;;;5079318;28;20483;-79
2021/11/14 09:11:25;;;;;;;43.33;16.58;;;11.90;94.30;;;;;;5079742;28;20098;-78
2021/11/14 09:13:52;;;;;;;35.67;15.15;;;11.90;94.30;;;;;;5079630;28;20047;-79
2021/11/14 09:16:18;;;;;;;36.50;13.98;;;11.90;94.30;;;;;;5079403;28;20468;-79
2021/11/14 09:18:45;;;;;;;35.72;16.17;;;12.00;94.30;;;;;;5079534;28;20017;-78
2021/11/14 09:21:12;;;;;;;35.95;16.30;;;12.00;94.30;;;;;;5079549;28;20028;-78
2021/11/14 09:23:38;;;;;;;30.85;14.77;;;12.00;94.30;;;;;;5078981;28;20024;-78
2021/11/14 09:26:04;;;;;;;24.83;13.05;;;12.10;94.30;;;;;;5079390;28;20029;-79
2021/11/14 09:28:30;;;;;;;25.40;13.23;;;12.10;94.30;;;;;;5079278;28;20067;-78
2021/11/14 09:30:56;;;;;;;26.65;14.25;;;12.10;94.30;;;;;;5079287;28;20032;-79
2021/11/14 09:33:24;;;;;;;25.30;14.43;;;12.20;94.30;;;;;;5079111;28;20016;-79
2021/11/14 09:35:51;;;;;;;28.02;15.50;;;12.20;94.30;;;;;;5079144;28;20035;-79
2021/11/14 09:38:17;;;;;;;30.85;18.60;;;12.20;94.30;;;;;;5078920;28;20055;-79
2021/11/14 09:40:42;;;;;;;31.55;18.55;;;12.20;94.30;;;;;;5078908;28;20044;-79
2021/11/14 09:43:09;;;;;;;30.50;17.08;;;12.30;94.30;;;;;;5079111;28;20032;-79
2021/11/14 09:45:36;;;;;;;29.88;17.10;;;12.30;94.30;;;;;;5079028;28;20029;-79
2021/11/14 09:48:03;;;;;;;25.88;14.77;;;12.40;94.20;;;;;;5078952;28;20096;-78
2021/11/14 09:50:30;;;;;;;26.17;14.07;;;12.40;94.20;;;;;;5078609;28;20028;-79
2021/11/14 09:52:57;;;;;;;22.65;11.60;;;12.50;94.20;;;;;;5078605;28;20059;-79
2021/11/14 09:55:27;;;;;;;20.85;11.25;;;12.50;94.20;;;;;;5078708;28;20099;-78
2021/11/14 09:57:53;;;;;;;21.08;10.75;;;12.60;94.20;;;;;;5078911;28;20048;-79
2021/11/14 10:00:23;;;;;;;19.95;10.93;;;12.60;94.20;;;;;;5078862;28;20021;-79
2021/11/14 10:02:49;;;;;;;18.73;9.75;;;12.70;94.00;;;;;;5078646;28;20021;-78
2021/11/14 10:05:15;;;;;;;20.02;9.35;;;12.70;94.10;;;;;;5078535;28;20064;-79
2021/11/14 10:07:52;;;;;;;19.20;9.90;;;12.70;94.10;;;;;;5076979;28;20433;-78
2021/11/14 10:10:18;;;;;;;19.38;9.00;;;12.80;94.10;;;;;;5078175;28;20024;-78
2021/11/14 10:12:44;;;;;;;15.32;8.57;;;12.90;94.10;;;;;;5078687;28;20021;-79
2021/11/14 10:15:10;;;;;;;14.50;8.05;;;12.90;93.90;;;;;;5078377;28;20032;-79
2021/11/14 10:17:37;;;;;;;15.38;7.43;;;13.00;93.70;;;;;;5078304;28;20096;-78
2021/11/14 10:20:26;;;;;;;15.65;7.68;;;13.00;93.60;;;;;;5078149;28;20033;-79
2021/11/14 10:23:05;;;;;;;13.63;7.75;;;13.00;93.50;;;;;;5077633;28;20021;-79
2021/11/14 10:25:31;;;;;;;12.63;6.57;;;13.00;93.50;;;;;;5078210;28;20028;-77
2021/11/14 10:28:01;;;;;;;15.65;7.15;;;13.10;93.50;;;;;;5078067;28;20034;-76
2021/11/14 10:30:29;;;;;;;15.52;6.78;;;13.20;93.20;;;;;;5076727;28;20016;-76
2021/11/14 10:32:59;;;;;;;13.55;7.18;;;13.10;93.10;;;;;;5077841;28;20021;-77
2021/11/14 10:35:26;;;;;;;12.27;6.63;;;13.20;93.10;;;;;;5078221;28;20499;-77
2021/11/14 10:37:54;;;;;;;14.32;8.60;;;13.20;93.10;;;;;;5077475;28;20045;-76
2021/11/14 10:40:30;;;;;;;18.83;8.85;;;13.30;93.10;;;;;;5077877;28;20016;-76
2021/11/14 10:42:59;;;;;;;18.17;8.40;;;13.30;93.00;;;;;;5077951;28;20437;-76
2021/11/14 10:45:26;;;;;;;17.63;8.13;;;13.30;92.60;;;;;;5077749;28;20514;-76
2021/11/14 10:47:58;;;;;;;23.98;9.27;;;13.30;92.40;;;;;;5078020;28;20039;-77
2021/11/14 10:50:28;;;;;;;24.17;9.20;;;13.40;92.40;;;;;;5077467;28;20048;-77
2021/11/14 10:52:57;;;;;;;18.35;8.27;;;13.40;92.30;;;;;;5093060;28;20027;-77
2021/11/14 10:55:25;;;;;;;16.85;7.78;;;13.40;92.20;;;;;;5077536;28;20020;-77
2021/11/14 10:57:51;;;;;;;17.60;8.45;;;13.40;92.10;;;;;;5076394;28;20047;-77
2021/11/14 11:00:21;;;;;;;19.23;7.47;;;13.40;92.10;;;;;;5077534;28;20024;-77
2021/11/14 11:02:48;;;;;;;14.18;7.15;;;13.40;92.10;;;;;;5077757;28;20396;-77
2021/11/14 11:05:21;;;;;;;17.05;7.50;;;13.40;92.00;;;;;;5077455;28;20069;-76
2021/11/14 11:08:04;;;;;;;17.75;7.85;;;13.50;92.00;;;;;;5077464;28;20071;-77
2021/11/14 11:10:37;;;;;;;15.38;7.45;;;13.50;91.80;;;;;;5077382;28;20021;-76
2021/11/14 11:13:05;;;;;;;17.10;6.65;;;13.60;91.90;;;;;;5076108;28;20024;-77
2021/11/14 11:15:41;;;;;;;17.30;7.18;;;13.60;91.90;;;;;;5077491;28;20024;-77
2021/11/14 11:18:12;;;;;;;16.55;7.90;;;13.70;91.80;;;;;;5077311;28;20028;-77
2021/11/14 11:20:39;;;;;;;34.55;12.90;;;13.70;91.50;;;;;;5077803;28;20013;-77
2021/11/14 11:23:07;;;;;;;25.10;10.55;;;13.80;91.00;;;;;;5075718;28;20121;-77
2021/11/14 11:25:35;;;;;;;25.02;9.32;;;13.90;90.80;;;;;;5077431;28;20021;-76
2021/11/14 11:28:03;;;;;;;20.42;10.35;;;14.00;90.30;;;;;;5075968;28;20035;-77
2021/11/14 11:30:37;;;;;;;31.85;11.80;;;14.10;90.60;;;;;;5077252;28;20028;-77
2021/11/14 11:33:03;;;;;;;20.58;8.50;;;14.20;90.70;;;;;;5077505;28;20455;-77
2021/11/14 11:35:29;;;;;;;13.50;6.22;;;14.30;90.40;;;;;;5081638;28;20390;-77
2021/11/14 11:37:55;;;;;;;15.80;5.95;;;14.40;90.40;;;;;;5080851;28;20503;-77
2021/11/14 11:40:21;;;;;;;10.13;4.60;;;14.50;90.30;;;;;;5081448;28;20020;-77
2021/11/14 11:42:47;;;;;;;11.15;5.65;;;14.50;90.10;;;;;;5081087;28;20472;-77
2021/11/14 11:45:25;;;;;;;16.23;6.50;;;14.50;89.60;;;;;;5081686;28;20052;-77
2021/11/14 11:47:53;;;;;;;13.05;5.45;;;14.60;89.30;;;;;;5081430;28;20368;-77
2021/11/14 11:50:24;;;;;;;13.40;5.18;;;14.60;89.20;;;;;;5081065;28;20024;-77
2021/11/14 11:52:50;;;;;;;10.10;4.40;;;14.70;89.70;;;;;;5079799;28;20020;-77
2021/11/14 11:55:18;;;;;;;14.20;6.50;;;14.70;90.00;;;;;;5079583;28;20062;-77
2021/11/14 11:57:44;;;;;;;14.55;6.40;;;14.70;90.20;;;;;;5081182;28;20035;-77
2021/11/14 12:00:11;;;;;;;13.20;6.25;;;14.70;90.20;;;;;;5080889;28;20024;-77
2021/11/14 12:02:36;;;;;;;12.45;5.97;;;14.80;90.10;;;;;;5080997;28;20048;-79
2021/11/14 12:05:15;;;;;;;16.52;7.68;;;14.80;90.00;;;;;;5081007;28;20471;-79
2021/11/14 12:07:50;;;;;;;21.52;9.32;;;14.90;89.30;;;;;;5080685;28;20024;-79
2021/11/14 12:10:19;;;;;;;12.23;4.90;;;15.00;88.50;;;;;;5080559;28;20028;-79
2021/11/14 12:13:03;;;;;;;10.60;4.00;;;15.00;85.60;;;;;;5080903;28;20383;-79
2021/11/14 12:15:32;;;;;;;10.90;5.30;;;15.00;86.30;;;;;;5079314;28;20031;-79
2021/11/14 12:18:05;;;;;;;12.68;5.63;;;15.10;85.40;;;;;;5080545;28;20080;-79
2021/11/14 12:20:32;;;;;;;10.38;4.57;;;15.00;84.20;;;;;;5080823;28;20556;-79
2021/11/14 12:23:04;;;;;;;9.15;4.03;;;15.00;82.80;;;;;;5080096;28;20035;-79
2021/11/14 12:25:38;;;;;;;12.30;5.72;;;15.00;83.30;;;;;;5080977;28;20021;-80
2021/11/14 12:28:20;;;;;;;10.02;4.93;;;15.00;83.60;;;;;;5079030;28;20549;-79
2021/11/14 12:31:42;;;;;;;10.37;4.23;;;15.00;83.70;;;;;;5080549;28;20491;-79
2021/11/14 12:33:53;;;;;;;9.80;4.72;;;15.00;84.30;;;;;;5074525;28;20255;-79
2021/11/14 12:36:31;;;;;;;10.32;4.15;;;15.00;84.70;;;;;;5078635;28;20049;-79